sensor_id;sensor_type;location;lat;lon;timestamp;temperature;humidity
45843;DHT22;31563;51.744;8.252;2023-03-11T00:00:47;17.90;54.00
45843;DHT22;31563;51.744;8.252;2023-03-11T00:03:17;17.60;43.90
45843;DHT22;31563;51.744;8.252;2023-03-11T00:05:46;17.60;54.60
45843;DHT22;31563;51.744;8.252;2023-03-11T00:08:16;18.10;54.10
45843;DHT22;31563;51.744;8.252;2023-03-11T00:10:46;17.20;55.20
45843;DHT22;31563;51.744;8.252;2023-03-11T00:13:16;17.90;55.40
45843;DHT22;31563;51.744;8.252;2023-03-11T00:15:46;17.60;56.10
45843;DHT22;31563;51.744;8.252;2023-03-11T00:18:15;17.40;55.80
45843;DHT22;31563;51.744;8.252;2023-03-11T00:20:45;17.60;52.00
45843;DHT22;31563;51.744;8.252;2023-03-11T00:23:14;17.90;55.40
45843;DHT22;31563;51.744;8.252;2023-03-11T00:25:44;17.80;53.30
45843;DHT22;31563;51.744;8.252;2023-03-11T00:28:13;17.70;54.30
45843;DHT22;31563;51.744;8.252;2023-03-11T00:30:45;17.70;45.30
45843;DHT22;31563;51.744;8.252;2023-03-11T00:33:14;17.70;44.60
45843;DHT22;31563;51.744;8.252;2023-03-11T00:35:43;17.60;44.10
45843;DHT22;31563;51.744;8.252;2023-03-11T00:38:13;17.60;55.40
45843;DHT22;31563;51.744;8.252;2023-03-11T00:40:44;17.70;55.60
45843;DHT22;31563;51.744;8.252;2023-03-11T00:43:12;17.50;44.50
45843;DHT22;31563;51.744;8.252;2023-03-11T00:45:41;18.00;55.90
45843;DHT22;31563;51.744;8.252;2023-03-11T00:48:12;17.60;55.00
45843;DHT22;31563;51.744;8.252;2023-03-11T00:50:41;17.50;55.00
45843;DHT22;31563;51.744;8.252;2023-03-11T00:53:09;17.60;54.40
45843;DHT22;31563;51.744;8.252;2023-03-11T00:55:38;17.50;53.40
45843;DHT22;31563;51.744;8.252;2023-03-11T00:58:06;17.70;54.20
45843;DHT22;31563;51.744;8.252;2023-03-11T01:00:34;17.30;53.50
45843;DHT22;31563;51.744;8.252;2023-03-11T01:03:03;17.20;54.00
45843;DHT22;31563;51.744;8.252;2023-03-11T01:05:33;17.50;55.80
45843;DHT22;31563;51.744;8.252;2023-03-11T01:08:02;17.70;56.60
45843;DHT22;31563;51.744;8.252;2023-03-11T01:10:32;17.00;51.30
45843;DHT22;31563;51.744;8.252;2023-03-11T01:13:01;17.10;55.70
45843;DHT22;31563;51.744;8.252;2023-03-11T01:15:32;17.30;44.00
45843;DHT22;31563;51.744;8.252;2023-03-11T01:18:01;17.40;56.40
45843;DHT22;31563;51.744;8.252;2023-03-11T01:20:31;17.00;46.10
45843;DHT22;31563;51.744;8.252;2023-03-11T01:22:59;17.30;44.50
45843;DHT22;31563;51.744;8.252;2023-03-11T01:25:28;17.50;55.10
45843;DHT22;31563;51.744;8.252;2023-03-11T01:27:56;16.90;53.90
45843;DHT22;31563;51.744;8.252;2023-03-11T01:30:24;17.40;53.80
45843;DHT22;31563;51.744;8.252;2023-03-11T01:32:54;17.50;53.40
45843;DHT22;31563;51.744;8.252;2023-03-11T01:35:24;17.30;44.50
45843;DHT22;31563;51.744;8.252;2023-03-11T01:37:54;17.10;50.80
45843;DHT22;31563;51.744;8.252;2023-03-11T01:40:26;17.50;54.50
45843;DHT22;31563;51.744;8.252;2023-03-11T01:42:57;17.10;54.60
45843;DHT22;31563;51.744;8.252;2023-03-11T01:45:40;16.80;54.90
45843;DHT22;31563;51.744;8.252;2023-03-11T01:48:09;17.50;56.60
45843;DHT22;31563;51.744;8.252;2023-03-11T01:50:42;17.10;55.00
45843;DHT22;31563;51.744;8.252;2023-03-11T01:53:12;17.20;44.50
45843;DHT22;31563;51.744;8.252;2023-03-11T01:55:41;18.10;55.40
45843;DHT22;31563;51.744;8.252;2023-03-11T01:58:13;16.80;54.20
45843;DHT22;31563;51.744;8.252;2023-03-11T02:00:43;16.90;54.80
45843;DHT22;31563;51.744;8.252;2023-03-11T02:03:16;17.10;44.30
45843;DHT22;31563;51.744;8.252;2023-03-11T02:05:46;17.40;54.60
45843;DHT22;31563;51.744;8.252;2023-03-11T02:08:15;17.20;53.90
45843;DHT22;31563;51.744;8.252;2023-03-11T02:10:44;17.00;53.40
45843;DHT22;31563;51.744;8.252;2023-03-11T02:13:14;17.00;44.30
45843;DHT22;31563;51.744;8.252;2023-03-11T02:15:43;17.50;53.30
45843;DHT22;31563;51.744;8.252;2023-03-11T02:18:13;16.80;52.40
45843;DHT22;31563;51.744;8.252;2023-03-11T02:20:48;16.80;54.30
45843;DHT22;31563;51.744;8.252;2023-03-11T02:23:24;17.40;54.80
45843;DHT22;31563;51.744;8.252;2023-03-11T02:25:57;17.60;55.20
45843;DHT22;31563;51.744;8.252;2023-03-11T02:28:30;16.80;55.40
45843;DHT22;31563;51.744;8.252;2023-03-11T02:30:59;17.00;44.40
45843;DHT22;31563;51.744;8.252;2023-03-11T02:33:30;16.70;53.80
45843;DHT22;31563;51.744;8.252;2023-03-11T02:35:58;16.90;44.30
45843;DHT22;31563;51.744;8.252;2023-03-11T02:38:27;16.90;43.90
45843;DHT22;31563;51.744;8.252;2023-03-11T02:40:56;17.00;54.40
45843;DHT22;31563;51.744;8.252;2023-03-11T02:43:32;16.80;53.50
45843;DHT22;31563;51.744;8.252;2023-03-11T02:46:03;17.00;56.10
45843;DHT22;31563;51.744;8.252;2023-03-11T02:48:33;17.20;55.40
45843;DHT22;31563;51.744;8.252;2023-03-11T02:51:02;16.30;55.40
45843;DHT22;31563;51.744;8.252;2023-03-11T02:53:34;16.50;55.40
45843;DHT22;31563;51.744;8.252;2023-03-11T02:56:04;17.10;56.10
45843;DHT22;31563;51.744;8.252;2023-03-11T02:58:34;16.70;55.10
45843;DHT22;31563;51.744;8.252;2023-03-11T03:01:02;16.80;44.20
45843;DHT22;31563;51.744;8.252;2023-03-11T03:03:30;17.10;55.30
45843;DHT22;31563;51.744;8.252;2023-03-11T03:05:59;17.60;55.90
45843;DHT22;31563;51.744;8.252;2023-03-11T03:08:27;16.80;43.70
45843;DHT22;31563;51.744;8.252;2023-03-11T03:10:55;16.80;44.30
45843;DHT22;31563;51.744;8.252;2023-03-11T03:13:25;17.10;54.50
45843;DHT22;31563;51.744;8.252;2023-03-11T03:15:55;16.80;54.60
45843;DHT22;31563;51.744;8.252;2023-03-11T03:18:23;16.40;52.20
45843;DHT22;31563;51.744;8.252;2023-03-11T03:20:51;16.80;44.10
45843;DHT22;31563;51.744;8.252;2023-03-11T03:23:20;16.80;44.30
45843;DHT22;31563;51.744;8.252;2023-03-11T03:25:48;16.10;54.70
45843;DHT22;31563;51.744;8.252;2023-03-11T03:28:16;17.20;54.60
45843;DHT22;31563;51.744;8.252;2023-03-11T03:30:45;17.10;54.10
45843;DHT22;31563;51.744;8.252;2023-03-11T03:33:14;16.60;53.80
45843;DHT22;31563;51.744;8.252;2023-03-11T03:35:44;16.80;52.30
45843;DHT22;31563;51.744;8.252;2023-03-11T03:38:12;17.30;52.70
45843;DHT22;31563;51.744;8.252;2023-03-11T03:40:45;16.60;53.70
45843;DHT22;31563;51.744;8.252;2023-03-11T03:43:13;16.70;44.30
45843;DHT22;31563;51.744;8.252;2023-03-11T03:45:41;16.70;55.10
45843;DHT22;31563;51.744;8.252;2023-03-11T03:48:10;16.60;54.30
45843;DHT22;31563;51.744;8.252;2023-03-11T03:50:40;16.70;54.70
45843;DHT22;31563;51.744;8.252;2023-03-11T03:53:08;16.30;53.70
45843;DHT22;31563;51.744;8.252;2023-03-11T03:55:36;17.00;54.90
45843;DHT22;31563;51.744;8.252;2023-03-11T03:58:04;16.70;54.90
45843;DHT22;31563;51.744;8.252;2023-03-11T04:00:34;16.60;55.80
45843;DHT22;31563;51.744;8.252;2023-03-11T04:03:02;16.50;53.30
45843;DHT22;31563;51.744;8.252;2023-03-11T04:05:30;17.10;53.90
45843;DHT22;31563;51.744;8.252;2023-03-11T04:08:00;17.10;53.80
45843;DHT22;31563;51.744;8.252;2023-03-11T04:10:28;16.60;44.20
45843;DHT22;31563;51.744;8.252;2023-03-11T04:12:56;17.40;52.30
45843;DHT22;31563;51.744;8.252;2023-03-11T04:15:24;16.60;44.20
45843;DHT22;31563;51.744;8.252;2023-03-11T04:17:52;16.60;44.10
45843;DHT22;31563;51.744;8.252;2023-03-11T04:20:20;16.60;44.20
45843;DHT22;31563;51.744;8.252;2023-03-11T04:22:49;16.30;54.10
45843;DHT22;31563;51.744;8.252;2023-03-11T04:25:18;16.60;44.20
45843;DHT22;31563;51.744;8.252;2023-03-11T04:27:46;16.40;51.10
45843;DHT22;31563;51.744;8.252;2023-03-11T04:30:16;16.50;44.10
45843;DHT22;31563;51.744;8.252;2023-03-11T04:32:44;16.30;51.50
45843;DHT22;31563;51.744;8.252;2023-03-11T04:35:12;16.10;52.30
45843;DHT22;31563;51.744;8.252;2023-03-11T04:37:40;16.60;52.50
45843;DHT22;31563;51.744;8.252;2023-03-11T04:40:09;16.50;44.10
45843;DHT22;31563;51.744;8.252;2023-03-11T04:42:39;15.90;50.30
45843;DHT22;31563;51.744;8.252;2023-03-11T04:45:08;16.40;44.10
45843;DHT22;31563;51.744;8.252;2023-03-11T04:47:37;16.00;50.90
45843;DHT22;31563;51.744;8.252;2023-03-11T04:50:06;16.20;52.50
45843;DHT22;31563;51.744;8.252;2023-03-11T04:52:34;16.40;52.90
45843;DHT22;31563;51.744;8.252;2023-03-11T04:57:30;16.70;46.40
45843;DHT22;31563;51.744;8.252;2023-03-11T05:00:00;16.40;53.80
45843;DHT22;31563;51.744;8.252;2023-03-11T05:02:28;16.40;52.50
45843;DHT22;31563;51.744;8.252;2023-03-11T05:04:56;16.90;54.00
45843;DHT22;31563;51.744;8.252;2023-03-11T05:07:24;17.00;54.00
45843;DHT22;31563;51.744;8.252;2023-03-11T05:09:52;16.70;55.20
45843;DHT22;31563;51.744;8.252;2023-03-11T05:12:20;17.40;54.30
45843;DHT22;31563;51.744;8.252;2023-03-11T05:14:48;17.20;54.60
45843;DHT22;31563;51.744;8.252;2023-03-11T05:17:18;17.10;55.30
45843;DHT22;31563;51.744;8.252;2023-03-11T05:19:46;17.50;54.40
45843;DHT22;31563;51.744;8.252;2023-03-11T05:22:15;17.30;55.50
45843;DHT22;31563;51.744;8.252;2023-03-11T05:27:13;17.10;42.90
45843;DHT22;31563;51.744;8.252;2023-03-11T05:32:13;17.40;55.20
45843;DHT22;31563;51.744;8.252;2023-03-11T05:34:42;17.20;56.10
45843;DHT22;31563;51.744;8.252;2023-03-11T05:37:11;17.10;43.20
45843;DHT22;31563;51.744;8.252;2023-03-11T05:39:39;17.00;57.00
45843;DHT22;31563;51.744;8.252;2023-03-11T05:42:08;17.50;56.40
45843;DHT22;31563;51.744;8.252;2023-03-11T05:44:36;17.40;56.60
45843;DHT22;31563;51.744;8.252;2023-03-11T05:47:04;17.20;43.20
45843;DHT22;31563;51.744;8.252;2023-03-11T05:49:32;17.40;55.80
45843;DHT22;31563;51.744;8.252;2023-03-11T05:52:02;17.20;43.10
45843;DHT22;31563;51.744;8.252;2023-03-11T05:54:30;16.90;55.80
45843;DHT22;31563;51.744;8.252;2023-03-11T05:56:58;17.30;43.10
45843;DHT22;31563;51.744;8.252;2023-03-11T05:59:27;17.30;42.50
45843;DHT22;31563;51.744;8.252;2023-03-11T06:01:55;17.10;54.00
45843;DHT22;31563;51.744;8.252;2023-03-11T06:04:23;17.40;42.90
45843;DHT22;31563;51.744;8.252;2023-03-11T06:06:51;17.40;54.80
45843;DHT22;31563;51.744;8.252;2023-03-11T06:09:21;17.30;42.30
45843;DHT22;31563;51.744;8.252;2023-03-11T06:11:49;17.40;42.80
45843;DHT22;31563;51.744;8.252;2023-03-11T06:14:17;17.40;42.70
45843;DHT22;31563;51.744;8.252;2023-03-11T06:16:45;17.20;54.50
45843;DHT22;31563;51.744;8.252;2023-03-11T06:19:14;17.50;42.30
45843;DHT22;31563;51.744;8.252;2023-03-11T06:21:42;17.50;54.40
45843;DHT22;31563;51.744;8.252;2023-03-11T06:24:10;17.30;54.50
45843;DHT22;31563;51.744;8.252;2023-03-11T06:26:39;17.70;53.80
45843;DHT22;31563;51.744;8.252;2023-03-11T06:29:12;17.70;54.40
45843;DHT22;31563;51.744;8.252;2023-03-11T06:31:40;17.40;53.40
45843;DHT22;31563;51.744;8.252;2023-03-11T06:34:09;18.10;55.50
45843;DHT22;31563;51.744;8.252;2023-03-11T06:36:37;17.80;52.70
45843;DHT22;31563;51.744;8.252;2023-03-11T06:39:06;17.90;47.10
45843;DHT22;31563;51.744;8.252;2023-03-11T06:41:35;17.50;53.80
45843;DHT22;31563;51.744;8.252;2023-03-11T06:44:04;17.40;55.70
45843;DHT22;31563;51.744;8.252;2023-03-11T06:46:33;17.70;53.80
45843;DHT22;31563;51.744;8.252;2023-03-11T06:49:02;17.50;53.90
45843;DHT22;31563;51.744;8.252;2023-03-11T06:51:36;17.70;53.40
45843;DHT22;31563;51.744;8.252;2023-03-11T06:54:05;17.60;41.60
45843;DHT22;31563;51.744;8.252;2023-03-11T06:56:34;17.60;52.90
45843;DHT22;31563;51.744;8.252;2023-03-11T06:59:03;17.90;54.10
45843;DHT22;31563;51.744;8.252;2023-03-11T07:01:34;17.60;54.10
45843;DHT22;31563;51.744;8.252;2023-03-11T07:04:06;17.50;59.90
45843;DHT22;31563;51.744;8.252;2023-03-11T07:06:34;17.70;59.90
45843;DHT22;31563;51.744;8.252;2023-03-11T07:09:02;18.00;61.80
45843;DHT22;31563;51.744;8.252;2023-03-11T07:13:58;18.00;56.60
45843;DHT22;31563;51.744;8.252;2023-03-11T07:16:29;17.80;41.30
45843;DHT22;31563;51.744;8.252;2023-03-11T07:18:58;17.40;55.10
45843;DHT22;31563;51.744;8.252;2023-03-11T07:21:30;18.10;54.80
45843;DHT22;31563;51.744;8.252;2023-03-11T07:24:00;18.20;54.00
45843;DHT22;31563;51.744;8.252;2023-03-11T07:26:30;18.10;54.70
45843;DHT22;31563;51.744;8.252;2023-03-11T07:31:31;18.30;55.50
45843;DHT22;31563;51.744;8.252;2023-03-11T07:34:01;18.30;41.00
45843;DHT22;31563;51.744;8.252;2023-03-11T07:36:30;18.40;40.40
45843;DHT22;31563;51.744;8.252;2023-03-11T07:39:01;18.70;40.60
45843;DHT22;31563;51.744;8.252;2023-03-11T07:41:32;18.50;53.10
45843;DHT22;31563;51.744;8.252;2023-03-11T07:44:01;19.00;56.30
45843;DHT22;31563;51.744;8.252;2023-03-11T07:46:31;18.80;40.10
45843;DHT22;31563;51.744;8.252;2023-03-11T07:49:00;19.10;54.70
45843;DHT22;31563;51.744;8.252;2023-03-11T07:51:31;18.80;52.40
45843;DHT22;31563;51.744;8.252;2023-03-11T07:53:59;18.90;40.50
45843;DHT22;31563;51.744;8.252;2023-03-11T07:56:29;18.70;54.10
45843;DHT22;31563;51.744;8.252;2023-03-11T07:58:58;18.40;58.70
45843;DHT22;31563;51.744;8.252;2023-03-11T08:01:28;18.60;53.50
45843;DHT22;31563;51.744;8.252;2023-03-11T08:04:04;18.70;52.50
45843;DHT22;31563;51.744;8.252;2023-03-11T08:06:34;18.90;38.40
45843;DHT22;31563;51.744;8.252;2023-03-11T08:09:05;19.00;53.00
45843;DHT22;31563;51.744;8.252;2023-03-11T08:11:34;19.20;51.80
45843;DHT22;31563;51.744;8.252;2023-03-11T08:14:03;19.30;39.30
45843;DHT22;31563;51.744;8.252;2023-03-11T08:16:31;19.50;49.90
45843;DHT22;31563;51.744;8.252;2023-03-11T08:19:00;19.40;52.00
45843;DHT22;31563;51.744;8.252;2023-03-11T08:21:29;20.20;52.90
45843;DHT22;31563;51.744;8.252;2023-03-11T08:24:00;19.70;54.20
45843;DHT22;31563;51.744;8.252;2023-03-11T08:26:31;20.60;49.30
45843;DHT22;31563;51.744;8.252;2023-03-11T08:29:00;20.70;49.90
45843;DHT22;31563;51.744;8.252;2023-03-11T08:31:30;20.90;48.20
45843;DHT22;31563;51.744;8.252;2023-03-11T08:34:01;21.50;46.60
45843;DHT22;31563;51.744;8.252;2023-03-11T08:36:31;21.60;36.40
45843;DHT22;31563;51.744;8.252;2023-03-11T08:38:59;22.40;47.10
45843;DHT22;31563;51.744;8.252;2023-03-11T08:41:28;22.50;47.80
45843;DHT22;31563;51.744;8.252;2023-03-11T08:43:56;22.20;36.50
45843;DHT22;31563;51.744;8.252;2023-03-11T08:46:26;23.00;48.50
45843;DHT22;31563;51.744;8.252;2023-03-11T08:48:55;23.10;43.90
45843;DHT22;31563;51.744;8.252;2023-03-11T08:51:27;23.20;35.70
45843;DHT22;31563;51.744;8.252;2023-03-11T08:53:57;23.70;43.90
45843;DHT22;31563;51.744;8.252;2023-03-11T08:56:25;23.90;35.20
45843;DHT22;31563;51.744;8.252;2023-03-11T08:58:53;24.30;35.30
45843;DHT22;31563;51.744;8.252;2023-03-11T09:01:21;24.60;34.20
45843;DHT22;31563;51.744;8.252;2023-03-11T09:03:50;25.00;34.20
45843;DHT22;31563;51.744;8.252;2023-03-11T09:06:18;25.30;33.70
45843;DHT22;31563;51.744;8.252;2023-03-11T09:08:47;25.50;33.40
45843;DHT22;31563;51.744;8.252;2023-03-11T09:11:17;25.80;33.20
45843;DHT22;31563;51.744;8.252;2023-03-11T09:13:48;26.00;33.00
45843;DHT22;31563;51.744;8.252;2023-03-11T09:16:18;26.30;32.90
45843;DHT22;31563;51.744;8.252;2023-03-11T09:18:47;26.60;32.80
45843;DHT22;31563;51.744;8.252;2023-03-11T09:21:16;26.90;32.60
45843;DHT22;31563;51.744;8.252;2023-03-11T09:23:44;27.10;32.30
45843;DHT22;31563;51.744;8.252;2023-03-11T09:26:13;27.30;32.30
45843;DHT22;31563;51.744;8.252;2023-03-11T09:28:43;27.60;32.20
45843;DHT22;31563;51.744;8.252;2023-03-11T09:31:15;27.90;32.10
45843;DHT22;31563;51.744;8.252;2023-03-11T09:33:44;28.10;32.00
45843;DHT22;31563;51.744;8.252;2023-03-11T09:36:14;28.40;31.60
45843;DHT22;31563;51.744;8.252;2023-03-11T09:38:43;28.60;31.50
45843;DHT22;31563;51.744;8.252;2023-03-11T09:41:21;28.90;31.30
45843;DHT22;31563;51.744;8.252;2023-03-11T09:44:05;29.20;31.60
45843;DHT22;31563;51.744;8.252;2023-03-11T09:46:56;29.60;31.30
45843;DHT22;31563;51.744;8.252;2023-03-11T09:49:32;29.90;31.10
45843;DHT22;31563;51.744;8.252;2023-03-11T09:52:08;30.20;30.80
45843;DHT22;31563;51.744;8.252;2023-03-11T09:54:38;30.50;30.60
45843;DHT22;31563;51.744;8.252;2023-03-11T09:57:11;30.80;30.40
45843;DHT22;31563;51.744;8.252;2023-03-11T09:59:43;31.00;30.30
45843;DHT22;31563;51.744;8.252;2023-03-11T10:02:14;31.40;30.20
45843;DHT22;31563;51.744;8.252;2023-03-11T10:04:50;31.40;29.70
45843;DHT22;31563;51.744;8.252;2023-03-11T10:07:22;31.10;27.30
45843;DHT22;31563;51.744;8.252;2023-03-11T10:09:53;30.70;28.40
45843;DHT22;31563;51.744;8.252;2023-03-11T10:12:36;31.20;29.10
45843;DHT22;31563;51.744;8.252;2023-03-11T10:15:22;31.80;28.70
45843;DHT22;31563;51.744;8.252;2023-03-11T10:18:07;32.50;29.30
45843;DHT22;31563;51.744;8.252;2023-03-11T10:20:45;33.00;29.50
45843;DHT22;31563;51.744;8.252;2023-03-11T10:23:23;33.40;29.20
45843;DHT22;31563;51.744;8.252;2023-03-11T10:25:59;32.90;28.60
45843;DHT22;31563;51.744;8.252;2023-03-11T10:28:32;33.40;29.70
45843;DHT22;31563;51.744;8.252;2023-03-11T10:31:18;34.00;29.20
45843;DHT22;31563;51.744;8.252;2023-03-11T10:33:49;33.50;28.10
45843;DHT22;31563;51.744;8.252;2023-03-11T10:36:22;32.40;26.80
45843;DHT22;31563;51.744;8.252;2023-03-11T10:38:54;32.70;29.10
45843;DHT22;31563;51.744;8.252;2023-03-11T10:41:27;33.60;29.00
45843;DHT22;31563;51.744;8.252;2023-03-11T10:44:03;34.40;29.20
45843;DHT22;31563;51.744;8.252;2023-03-11T10:46:34;35.10;28.70
45843;DHT22;31563;51.744;8.252;2023-03-11T10:49:02;35.50;28.30
45843;DHT22;31563;51.744;8.252;2023-03-11T10:51:33;35.80;27.80
45843;DHT22;31563;51.744;8.252;2023-03-11T10:54:02;36.20;27.50
45843;DHT22;31563;51.744;8.252;2023-03-11T10:56:32;35.60;26.50
45843;DHT22;31563;51.744;8.252;2023-03-11T10:59:01;34.90;27.30
45843;DHT22;31563;51.744;8.252;2023-03-11T11:01:30;35.30;27.80
45843;DHT22;31563;51.744;8.252;2023-03-11T11:04:00;36.10;27.70
45843;DHT22;31563;51.744;8.252;2023-03-11T11:06:31;36.20;27.20
45843;DHT22;31563;51.744;8.252;2023-03-11T11:09:04;36.80;27.30
45843;DHT22;31563;51.744;8.252;2023-03-11T11:11:33;37.00;26.40
45843;DHT22;31563;51.744;8.252;2023-03-11T11:14:02;36.10;26.00
45843;DHT22;31563;51.744;8.252;2023-03-11T11:16:32;35.20;26.30
45843;DHT22;31563;51.744;8.252;2023-03-11T11:19:06;34.30;26.60
45843;DHT22;31563;51.744;8.252;2023-03-11T11:21:36;33.50;26.90
45843;DHT22;31563;51.744;8.252;2023-03-11T11:24:12;33.60;28.30
45843;DHT22;31563;51.744;8.252;2023-03-11T11:26:42;34.80;28.30
45843;DHT22;31563;51.744;8.252;2023-03-11T11:29:29;35.90;27.80
45843;DHT22;31563;51.744;8.252;2023-03-11T11:32:15;36.70;27.20
45843;DHT22;31563;51.744;8.252;2023-03-11T11:34:56;37.10;27.20
45843;DHT22;31563;51.744;8.252;2023-03-11T11:37:26;37.60;27.20
45843;DHT22;31563;51.744;8.252;2023-03-11T11:40:00;37.90;26.30
45843;DHT22;31563;51.744;8.252;2023-03-11T11:42:38;37.10;26.00
45843;DHT22;31563;51.744;8.252;2023-03-11T11:45:13;36.50;26.80
45843;DHT22;31563;51.744;8.252;2023-03-11T11:47:43;36.30;26.80
45843;DHT22;31563;51.744;8.252;2023-03-11T11:50:22;35.80;26.30
45843;DHT22;31563;51.744;8.252;2023-03-11T11:52:56;35.10;23.20
45843;DHT22;31563;51.744;8.252;2023-03-11T11:55:29;35.20;24.60
45843;DHT22;31563;51.744;8.252;2023-03-11T11:57:58;35.90;25.50
45843;DHT22;31563;51.744;8.252;2023-03-11T12:00:30;36.70;25.70
45843;DHT22;31563;51.744;8.252;2023-03-11T12:03:16;37.40;25.90
45843;DHT22;31563;51.744;8.252;2023-03-11T12:05:56;38.00;25.70
45843;DHT22;31563;51.744;8.252;2023-03-11T12:08:30;38.00;25.00
45843;DHT22;31563;51.744;8.252;2023-03-11T12:11:03;37.10;24.90
45843;DHT22;31563;51.744;8.252;2023-03-11T12:13:49;36.60;25.40
45843;DHT22;31563;51.744;8.252;2023-03-11T12:16:33;36.80;25.80
45843;DHT22;31563;51.744;8.252;2023-03-11T12:19:12;37.10;25.60
45843;DHT22;31563;51.744;8.252;2023-03-11T12:21:59;37.30;25.50
45843;DHT22;31563;51.744;8.252;2023-03-11T12:24:52;37.50;25.50
45843;DHT22;31563;51.744;8.252;2023-03-11T12:27:30;37.90;25.50
45843;DHT22;31563;51.744;8.252;2023-03-11T12:30:04;38.10;25.30
45843;DHT22;31563;51.744;8.252;2023-03-11T12:32:40;38.00;25.00
45843;DHT22;31563;51.744;8.252;2023-03-11T12:35:19;37.20;24.60
45843;DHT22;31563;51.744;8.252;2023-03-11T12:37:58;36.30;24.90
45843;DHT22;31563;51.744;8.252;2023-03-11T12:40:55;35.70;25.50
45843;DHT22;31563;51.744;8.252;2023-03-11T12:47:02;36.60;26.10
45843;DHT22;31563;51.744;8.252;2023-03-11T12:49:31;36.90;25.70
45843;DHT22;31563;51.744;8.252;2023-03-11T12:52:02;36.50;25.40
45843;DHT22;31563;51.744;8.252;2023-03-11T12:54:33;36.20;25.70
45843;DHT22;31563;51.744;8.252;2023-03-11T12:57:04;36.00;25.90
45843;DHT22;31563;51.744;8.252;2023-03-11T13:03:02;35.50;25.60
45843;DHT22;31563;51.744;8.252;2023-03-11T13:05:49;35.30;26.10
45843;DHT22;31563;51.744;8.252;2023-03-11T13:08:22;35.10;25.90
45843;DHT22;31563;51.744;8.252;2023-03-11T13:10:53;34.90;26.20
45843;DHT22;31563;51.744;8.252;2023-03-11T13:13:36;34.50;26.10
45843;DHT22;31563;51.744;8.252;2023-03-11T13:16:35;33.90;26.20
45843;DHT22;31563;51.744;8.252;2023-03-11T13:19:36;33.40;26.50
45843;DHT22;31563;51.744;8.252;2023-03-11T13:25:37;33.00;27.10
45843;DHT22;31563;51.744;8.252;2023-03-11T13:28:28;32.70;27.40
45843;DHT22;31563;51.744;8.252;2023-03-11T13:31:13;32.80;27.80
45843;DHT22;31563;51.744;8.252;2023-03-11T13:33:51;32.80;27.60
45843;DHT22;31563;51.744;8.252;2023-03-11T13:36:39;32.90;28.00
45843;DHT22;31563;51.744;8.252;2023-03-11T13:39:44;32.80;27.60
45843;DHT22;31563;51.744;8.252;2023-03-11T13:42:23;33.00;28.30
45843;DHT22;31563;51.744;8.252;2023-03-11T13:44:55;33.30;27.80
45843;DHT22;31563;51.744;8.252;2023-03-11T13:47:25;33.10;28.40
45843;DHT22;31563;51.744;8.252;2023-03-11T13:49:58;33.40;28.00
45843;DHT22;31563;51.744;8.252;2023-03-11T13:52:31;33.30;27.80
45843;DHT22;31563;51.744;8.252;2023-03-11T13:55:02;33.60;28.30
45843;DHT22;31563;51.744;8.252;2023-03-11T13:57:33;34.00;27.40
45843;DHT22;31563;51.744;8.252;2023-03-11T14:00:17;33.60;26.20
45843;DHT22;31563;51.744;8.252;2023-03-11T14:02:51;34.00;28.60
45843;DHT22;31563;51.744;8.252;2023-03-11T14:05:23;34.90;27.50
45843;DHT22;31563;51.744;8.252;2023-03-11T14:07:52;36.00;28.20
45843;DHT22;31563;51.744;8.252;2023-03-11T14:10:24;37.30;27.40
45843;DHT22;31563;51.744;8.252;2023-03-11T14:13:05;38.40;26.80
45843;DHT22;31563;51.744;8.252;2023-03-11T14:15:43;39.30;26.50
45843;DHT22;31563;51.744;8.252;2023-03-11T14:18:25;39.90;25.30
45843;DHT22;31563;51.744;8.252;2023-03-11T14:20:54;38.80;24.40
45843;DHT22;31563;51.744;8.252;2023-03-11T14:23:26;38.10;25.60
45843;DHT22;31563;51.744;8.252;2023-03-11T14:26:06;38.90;26.40
45843;DHT22;31563;51.744;8.252;2023-03-11T14:28:37;39.90;26.20
45843;DHT22;31563;51.744;8.252;2023-03-11T14:31:23;40.90;25.50
45843;DHT22;31563;51.744;8.252;2023-03-11T14:33:56;41.50;25.60
45843;DHT22;31563;51.744;8.252;2023-03-11T14:36:38;42.00;25.20
45843;DHT22;31563;51.744;8.252;2023-03-11T14:39:24;42.50;25.20
45843;DHT22;31563;51.744;8.252;2023-03-11T14:41:55;42.90;24.70
45843;DHT22;31563;51.744;8.252;2023-03-11T14:44:25;43.30;24.60
45843;DHT22;31563;51.744;8.252;2023-03-11T14:47:03;43.70;24.80
45843;DHT22;31563;51.744;8.252;2023-03-11T14:49:33;43.90;24.50
45843;DHT22;31563;51.744;8.252;2023-03-11T14:52:05;44.10;24.20
45843;DHT22;31563;51.744;8.252;2023-03-11T14:54:35;44.30;24.20
45843;DHT22;31563;51.744;8.252;2023-03-11T14:57:06;44.50;24.30
45843;DHT22;31563;51.744;8.252;2023-03-11T14:59:37;44.30;24.00
45843;DHT22;31563;51.744;8.252;2023-03-11T15:02:34;44.20;24.70
45843;DHT22;31563;51.744;8.252;2023-03-11T15:05:10;44.10;24.20
45843;DHT22;31563;51.744;8.252;2023-03-11T15:07:43;44.10;24.20
45843;DHT22;31563;51.744;8.252;2023-03-11T15:10:12;44.30;24.30
45843;DHT22;31563;51.744;8.252;2023-03-11T15:12:42;44.10;20.70
45843;DHT22;31563;51.744;8.252;2023-03-11T15:15:22;42.50;21.50
45843;DHT22;31563;51.744;8.252;2023-03-11T15:17:56;42.00;23.00
45843;DHT22;31563;51.744;8.252;2023-03-11T15:20:26;41.40;20.90
45843;DHT22;31563;51.744;8.252;2023-03-11T15:22:56;40.30;19.70
45843;DHT22;31563;51.744;8.252;2023-03-11T15:25:29;39.80;22.30
45843;DHT22;31563;51.744;8.252;2023-03-11T15:27:58;39.60;22.90
45843;DHT22;31563;51.744;8.252;2023-03-11T15:30:28;38.60;23.70
45843;DHT22;31563;51.744;8.252;2023-03-11T15:32:58;37.90;21.50
45843;DHT22;31563;51.744;8.252;2023-03-11T15:35:28;36.90;20.00
45843;DHT22;31563;51.744;8.252;2023-03-11T15:38:18;36.60;20.50
45843;DHT22;31563;51.744;8.252;2023-03-11T15:40:52;36.50;19.30
45843;DHT22;31563;51.744;8.252;2023-03-11T15:43:24;36.70;20.40
45843;DHT22;31563;51.744;8.252;2023-03-11T15:45:53;35.80;18.60
45843;DHT22;31563;51.744;8.252;2023-03-11T15:48:25;34.20;18.50
45843;DHT22;31563;51.744;8.252;2023-03-11T15:50:56;33.30;19.20
45843;DHT22;31563;51.744;8.252;2023-03-11T15:53:25;33.40;19.30
45843;DHT22;31563;51.744;8.252;2023-03-11T15:55:56;33.40;19.20
45843;DHT22;31563;51.744;8.252;2023-03-11T15:58:34;33.30;19.10
45843;DHT22;31563;51.744;8.252;2023-03-11T16:01:04;33.30;19.00
45843;DHT22;31563;51.744;8.252;2023-03-11T16:03:33;33.20;18.70
45843;DHT22;31563;51.744;8.252;2023-03-11T16:06:02;32.60;18.60
45843;DHT22;31563;51.744;8.252;2023-03-11T16:08:30;32.00;18.80
45843;DHT22;31563;51.744;8.252;2023-03-11T16:10:58;31.30;18.70
45843;DHT22;31563;51.744;8.252;2023-03-11T16:13:27;30.50;18.70
45843;DHT22;31563;51.744;8.252;2023-03-11T16:15:55;29.90;18.90
45843;DHT22;31563;51.744;8.252;2023-03-11T16:18:23;29.70;19.70
45843;DHT22;31563;51.744;8.252;2023-03-11T16:20:53;29.70;20.10